KPHT/PHT METAR and TAF weather

Enter ICAO airport designator
Station Type Date Time Source
KPHT METAR 2019/08/18 09:35 UTC NOAA

KPHT 180935Z AUTO 00000KT 10SM CLR 20/20 A2992 RMK A01


Station Type Date Time Source
KPHT Decoded METAR 2019/08/18 09:35 UTC NOAA

Station name not available
Aug 18, 2019 - 05:35 AM EDT / 2019.08.18 0935 UTC
Wind: Calm:0
Visibility: 10 mile(s):0
Sky conditions: clear
Temperature: 68 F (20 C)
Dew Point: 68 F (20 C)
Relative Humidity: 100%
Pressure (altimeter): 29.92 in. Hg (1013 hPa)
ob: KPHT 180935Z AUTO 00000KT 10SM CLR 20/20 A2992 RMK A01
cycle: 9

Station Type Date Time Source
KPHT TAF UTC NOAA

Error!

Example: see airport list